Othello — LXOD — position and weather

sailwx.info

Track history (hours):
 
Tides and Currents Weather Stations Pressure Air Temp Water Temp Dewpoint Dewpoint Depression Visibility Wind Speed Wind Dir Waves Ship Positions

Othello

Last reported at 2017-Oct-17 15:11 UTC. Time now 2017-Oct-17 15:33 UTC.
Position N 32°17' W 009°19'.

Length 104 m; draft 5.6 m.

Type: Tanker. MMSI: 253279000.

Date/timePositionNaut miles runAvg speedWind from/ knotsBaromVisibWave heightAir tempDewpointWater temp
2017-Oct-17 15:11N 32°17' W 009°19'0 0.1
2017-Oct-17 14:56N 32°17' W 009°19'23 2.0
2017-Oct-17 03:33N 32°40' W 009°19'012.7
2017-Oct-17 03:30N 32°41' W 009°19'612.7
2017-Oct-17 03:00N 32°46' W 009°15'7113.7
2017-Oct-16 21:49N 33°44' W 008°26'614.5
2017-Oct-16 21:23N 33°49' W 008°21'614.6
2017-Oct-16 20:58N 33°54' W 008°17'714.7
2017-Oct-16 20:30N 33°59' W 008°11'814.7
2017-Oct-16 19:59N 34°05' W 008°06'16813.9
2017-Oct-16 07:58N 35°57' W 005°34'715.1
2017-Oct-16 07:30N 35°59' W 005°26'714.2
2017-Oct-16 07:00N 36°02' W 005°18'21613.8
2017-Oct-15 15:21N 37°13' W 001°04'514.8
2017-Oct-15 15:00N 37°16' W 000°59'1414.5
2017-Oct-15 14:00N 37°26' W 000°46'814.3
2017-Oct-15 13:25N 37°31' W 000°38'614.5
2017-Oct-15 13:00N 37°36' W 000°33'714.6
2017-Oct-15 12:30N 37°42' W 000°27'  
2017-Oct-10 11:26N 35°60' W 005°01'613.9
2017-Oct-10 11:00N 35°59' W 005°08'713.8
2017-Oct-10 10:31N 35°57' W 005°16'3 6.7
2017-Oct-10 10:00N 35°54' W 005°18'0 0.0
2017-Oct-10 09:31N 35°54' W 005°18'99 8.4
2017-Oct-09 21:43N 36°04' W 007°20'313.6
2017-Oct-09 21:30N 36°05' W 007°24'713.3
2017-Oct-09 21:00N 36°07' W 007°32'713.3
2017-Oct-09 20:31N 36°08' W 007°40'713.5
2017-Oct-09 20:01N 36°10' W 007°48'713.5
2017-Oct-09 19:30N 36°12' W 007°56'713.6
2017-Oct-09 19:00N 36°13' W 008°04'713.8
2017-Oct-09 18:30N 36°15' W 008°12'713.7
2017-Oct-09 18:00N 36°17' W 008°21'713.4
2017-Oct-09 17:30N 36°19' W 008°29'713.6
2017-Oct-09 17:00N 36°21' W 008°37'713.7
2017-Oct-09 16:28N 36°23' W 008°46'613.6
2017-Oct-09 16:00N 36°24' W 008°53'714.1
2017-Oct-09 15:30N 36°25' W 009°02'714.3
2017-Oct-09 15:01N 36°26' W 009°11'612.5
2017-Oct-09 14:31N 36°28' W 009°18'714.3
2017-Oct-09 14:01N 36°34' W 009°24'713.3
2017-Oct-09 13:30N 36°39' W 009°29'713.1
2017-Oct-09 13:00N 36°43' W 009°35'613.0
2017-Oct-09 12:30N 36°49' W 009°38'713.6
2017-Oct-09 12:00N 36°56' W 009°41'713.3
2017-Oct-09 11:30N 37°02' W 009°42'713.2
2017-Oct-09 11:00N 37°09' W 009°44'713.6
2017-Oct-09 10:30N 37°15' W 009°46'713.7
2017-Oct-09 10:00N 37°22' W 009°48'714.2
2017-Oct-09 09:31N 37°29' W 009°51'713.7
2017-Oct-09 09:01N 37°35' W 009°53'713.8
2017-Oct-09 08:30N 37°42' W 009°56'714.0
2017-Oct-09 08:00N 37°49' W 009°57'714.3
2017-Oct-09 07:30N 37°56' W 009°59'714.4
2017-Oct-09 07:00N 38°03' W 010°01'713.5
2017-Oct-09 06:30N 38°10' W 010°03'713.1
2017-Oct-09 06:00N 38°16' W 010°04'713.3
2017-Oct-09 05:30N 38°23' W 010°06'713.3
2017-Oct-09 05:00N 38°29' W 010°08'713.5
2017-Oct-09 04:30N 38°36' W 010°10'713.9
2017-Oct-09 04:00N 38°42' W 010°11'713.5
2017-Oct-09 03:31N 38°49' W 010°11'713.2
2017-Oct-09 03:01N 38°56' W 010°11'713.1
2017-Oct-09 02:30N 39°02' W 010°11'713.8
2017-Oct-09 02:01N 39°09' W 010°10'713.5
2017-Oct-09 01:30N 39°16' W 010°11'713.5
2017-Oct-09 01:00N 39°23' W 010°11'713.6
2017-Oct-09 00:30N 39°30' W 010°11'713.8
2017-Oct-09 00:00N 39°36' W 010°11'713.5
2017-Oct-08 23:30N 39°43' W 010°12'713.4
2017-Oct-08 23:00N 39°50' W 010°12'713.5
2017-Oct-08 22:30N 39°57' W 010°12'713.4
2017-Oct-08 22:00N 40°03' W 010°11'713.7
2017-Oct-08 21:30N 40°10' W 010°12'713.8
2017-Oct-08 21:00N 40°17' W 010°12'1213.8
2017-Oct-08 20:07N 40°29' W 010°12'213.8
2017-Oct-08 19:59N 40°31' W 010°12'613.2
2017-Oct-08 19:30N 40°37' W 010°12'713.2
2017-Oct-08 19:00N 40°44' W 010°12'713.3
2017-Oct-08 18:30N 40°51' W 010°12'713.6
2017-Oct-08 18:00N 40°57' W 010°12'713.3
2017-Oct-08 17:30N 41°04' W 010°12'  
Track history (hours):
 
Tides and Currents Weather Stations Pressure Air Temp Water Temp Dewpoint Dewpoint Depression Visibility Wind Speed Wind Dir Waves Ship Positions

Othello

Last reported at 2017-Oct-17 15:11 UTC. Time now 2017-Oct-17 15:33 UTC.
Position N 32°17' W 009°19'.

Length 104 m; draft 5.6 m.

Type: Tanker. MMSI: 253279000.

Date/timePositionNaut miles runAvg speedWind from/ knotsBaromVisibWave heightAir tempDewpointWater temp
2017-Oct-17 15:11N 32°17' W 009°19'0 0.1
2017-Oct-17 14:56N 32°17' W 009°19'23 2.0
2017-Oct-17 03:33N 32°40' W 009°19'012.7
2017-Oct-17 03:30N 32°41' W 009°19'612.7
2017-Oct-17 03:00N 32°46' W 009°15'7113.7
2017-Oct-16 21:49N 33°44' W 008°26'614.5
2017-Oct-16 21:23N 33°49' W 008°21'614.6
2017-Oct-16 20:58N 33°54' W 008°17'714.7
2017-Oct-16 20:30N 33°59' W 008°11'814.7
2017-Oct-16 19:59N 34°05' W 008°06'16813.9
2017-Oct-16 07:58N 35°57' W 005°34'715.1
2017-Oct-16 07:30N 35°59' W 005°26'714.2
2017-Oct-16 07:00N 36°02' W 005°18'21613.8
2017-Oct-15 15:21N 37°13' W 001°04'514.8
2017-Oct-15 15:00N 37°16' W 000°59'1414.5
2017-Oct-15 14:00N 37°26' W 000°46'814.3
2017-Oct-15 13:25N 37°31' W 000°38'614.5
2017-Oct-15 13:00N 37°36' W 000°33'714.6
2017-Oct-15 12:30N 37°42' W 000°27'  
2017-Oct-10 11:26N 35°60' W 005°01'613.9
2017-Oct-10 11:00N 35°59' W 005°08'713.8
2017-Oct-10 10:31N 35°57' W 005°16'3 6.7
2017-Oct-10 10:00N 35°54' W 005°18'0 0.0
2017-Oct-10 09:31N 35°54' W 005°18'99 8.4
2017-Oct-09 21:43N 36°04' W 007°20'313.6
2017-Oct-09 21:30N 36°05' W 007°24'713.3
2017-Oct-09 21:00N 36°07' W 007°32'713.3
2017-Oct-09 20:31N 36°08' W 007°40'713.5
2017-Oct-09 20:01N 36°10' W 007°48'713.5
2017-Oct-09 19:30N 36°12' W 007°56'713.6
2017-Oct-09 19:00N 36°13' W 008°04'713.8
2017-Oct-09 18:30N 36°15' W 008°12'713.7
2017-Oct-09 18:00N 36°17' W 008°21'713.4
2017-Oct-09 17:30N 36°19' W 008°29'713.6
2017-Oct-09 17:00N 36°21' W 008°37'713.7
2017-Oct-09 16:28N 36°23' W 008°46'613.6
2017-Oct-09 16:00N 36°24' W 008°53'714.1
2017-Oct-09 15:30N 36°25' W 009°02'714.3
2017-Oct-09 15:01N 36°26' W 009°11'612.5
2017-Oct-09 14:31N 36°28' W 009°18'714.3
2017-Oct-09 14:01N 36°34' W 009°24'713.3
2017-Oct-09 13:30N 36°39' W 009°29'713.1
2017-Oct-09 13:00N 36°43' W 009°35'613.0
2017-Oct-09 12:30N 36°49' W 009°38'713.6
2017-Oct-09 12:00N 36°56' W 009°41'713.3
2017-Oct-09 11:30N 37°02' W 009°42'713.2
2017-Oct-09 11:00N 37°09' W 009°44'713.6
2017-Oct-09 10:30N 37°15' W 009°46'713.7
2017-Oct-09 10:00N 37°22' W 009°48'714.2
2017-Oct-09 09:31N 37°29' W 009°51'713.7
2017-Oct-09 09:01N 37°35' W 009°53'713.8
2017-Oct-09 08:30N 37°42' W 009°56'714.0
2017-Oct-09 08:00N 37°49' W 009°57'714.3
2017-Oct-09 07:30N 37°56' W 009°59'714.4
2017-Oct-09 07:00N 38°03' W 010°01'713.5
2017-Oct-09 06:30N 38°10' W 010°03'713.1
2017-Oct-09 06:00N 38°16' W 010°04'713.3
2017-Oct-09 05:30N 38°23' W 010°06'713.3
2017-Oct-09 05:00N 38°29' W 010°08'713.5
2017-Oct-09 04:30N 38°36' W 010°10'713.9
2017-Oct-09 04:00N 38°42' W 010°11'713.5
2017-Oct-09 03:31N 38°49' W 010°11'713.2
2017-Oct-09 03:01N 38°56' W 010°11'713.1
2017-Oct-09 02:30N 39°02' W 010°11'713.8
2017-Oct-09 02:01N 39°09' W 010°10'713.5
2017-Oct-09 01:30N 39°16' W 010°11'713.5
2017-Oct-09 01:00N 39°23' W 010°11'713.6
2017-Oct-09 00:30N 39°30' W 010°11'713.8
2017-Oct-09 00:00N 39°36' W 010°11'713.5
2017-Oct-08 23:30N 39°43' W 010°12'713.4
2017-Oct-08 23:00N 39°50' W 010°12'713.5
2017-Oct-08 22:30N 39°57' W 010°12'713.4
2017-Oct-08 22:00N 40°03' W 010°11'713.7
2017-Oct-08 21:30N 40°10' W 010°12'713.8
2017-Oct-08 21:00N 40°17' W 010°12'1213.8
2017-Oct-08 20:07N 40°29' W 010°12'213.8
2017-Oct-08 19:59N 40°31' W 010°12'613.2
2017-Oct-08 19:30N 40°37' W 010°12'713.2
2017-Oct-08 19:00N 40°44' W 010°12'713.3
2017-Oct-08 18:30N 40°51' W 010°12'713.6
2017-Oct-08 18:00N 40°57' W 010°12'713.3
2017-Oct-08 17:30N 41°04' W 010°12'  

Dump ship's entire track history